sensor_id;sensor_type;location;lat;lon;timestamp;temperature;humidity
12870;DHT22;6503;48.572;13.460;2022-09-09T00:00:11;14.30;99.90
12870;DHT22;6503;48.572;13.460;2022-09-09T00:02:45;14.20;99.90
12870;DHT22;6503;48.572;13.460;2022-09-09T00:05:27;14.20;99.90
12870;DHT22;6503;48.572;13.460;2022-09-09T00:08:00;14.20;99.90
12870;DHT22;6503;48.572;13.460;2022-09-09T00:10:33;14.30;99.90
12870;DHT22;6503;48.572;13.460;2022-09-09T00:13:16;14.20;99.90
12870;DHT22;6503;48.572;13.460;2022-09-09T00:15:57;14.20;99.90
12870;DHT22;6503;48.572;13.460;2022-09-09T00:18:33;14.10;99.90
12870;DHT22;6503;48.572;13.460;2022-09-09T00:21:13;14.10;99.90
12870;DHT22;6503;48.572;13.460;2022-09-09T00:23:47;14.20;99.90
12870;DHT22;6503;48.572;13.460;2022-09-09T00:26:25;14.20;99.90
12870;DHT22;6503;48.572;13.460;2022-09-09T00:29:09;14.20;99.90
12870;DHT22;6503;48.572;13.460;2022-09-09T00:31:41;14.00;99.90
12870;DHT22;6503;48.572;13.460;2022-09-09T00:34:14;14.00;99.90
12870;DHT22;6503;48.572;13.460;2022-09-09T00:36:45;13.90;99.90
12870;DHT22;6503;48.572;13.460;2022-09-09T00:39:25;13.80;99.90
12870;DHT22;6503;48.572;13.460;2022-09-09T00:42:11;13.80;99.90
12870;DHT22;6503;48.572;13.460;2022-09-09T00:44:53;13.80;99.90
12870;DHT22;6503;48.572;13.460;2022-09-09T00:47:47;13.90;99.90
12870;DHT22;6503;48.572;13.460;2022-09-09T00:50:41;14.00;99.90
12870;DHT22;6503;48.572;13.460;2022-09-09T00:53:32;14.00;99.90
12870;DHT22;6503;48.572;13.460;2022-09-09T00:56:13;14.00;99.90
12870;DHT22;6503;48.572;13.460;2022-09-09T00:58:49;14.00;99.90
12870;DHT22;6503;48.572;13.460;2022-09-09T01:01:25;14.10;99.90
12870;DHT22;6503;48.572;13.460;2022-09-09T01:03:56;14.00;99.90
12870;DHT22;6503;48.572;13.460;2022-09-09T01:06:30;14.00;99.90
12870;DHT22;6503;48.572;13.460;2022-09-09T01:09:16;14.00;99.90
12870;DHT22;6503;48.572;13.460;2022-09-09T01:11:55;14.00;99.90
12870;DHT22;6503;48.572;13.460;2022-09-09T01:14:42;14.00;99.90
12870;DHT22;6503;48.572;13.460;2022-09-09T01:17:19;14.00;99.90
12870;DHT22;6503;48.572;13.460;2022-09-09T01:19:58;14.00;99.90
12870;DHT22;6503;48.572;13.460;2022-09-09T01:22:34;13.90;99.90
12870;DHT22;6503;48.572;13.460;2022-09-09T01:25:22;13.90;99.90
12870;DHT22;6503;48.572;13.460;2022-09-09T01:28:00;14.00;99.90
12870;DHT22;6503;48.572;13.460;2022-09-09T01:30:34;14.00;99.90
12870;DHT22;6503;48.572;13.460;2022-09-09T01:33:04;14.00;99.90
12870;DHT22;6503;48.572;13.460;2022-09-09T01:35:41;13.90;99.90
12870;DHT22;6503;48.572;13.460;2022-09-09T01:38:15;13.90;99.90
12870;DHT22;6503;48.572;13.460;2022-09-09T01:40:45;13.90;99.90
12870;DHT22;6503;48.572;13.460;2022-09-09T01:43:17;14.00;99.90
12870;DHT22;6503;48.572;13.460;2022-09-09T01:45:48;13.90;99.90
12870;DHT22;6503;48.572;13.460;2022-09-09T01:48:19;13.90;99.90
12870;DHT22;6503;48.572;13.460;2022-09-09T01:50:50;13.90;99.90
12870;DHT22;6503;48.572;13.460;2022-09-09T01:53:20;13.90;99.90
12870;DHT22;6503;48.572;13.460;2022-09-09T01:55:57;13.90;99.90
12870;DHT22;6503;48.572;13.460;2022-09-09T01:58:39;13.90;99.90
12870;DHT22;6503;48.572;13.460;2022-09-09T02:01:17;13.80;99.90
12870;DHT22;6503;48.572;13.460;2022-09-09T02:03:53;13.80;99.90
12870;DHT22;6503;48.572;13.460;2022-09-09T02:06:28;13.80;99.90
12870;DHT22;6503;48.572;13.460;2022-09-09T02:09:02;13.90;99.90
12870;DHT22;6503;48.572;13.460;2022-09-09T02:11:33;13.80;99.90
12870;DHT22;6503;48.572;13.460;2022-09-09T02:14:09;13.80;99.90
12870;DHT22;6503;48.572;13.460;2022-09-09T02:16:42;13.80;99.90
12870;DHT22;6503;48.572;13.460;2022-09-09T02:19:16;13.90;99.90
12870;DHT22;6503;48.572;13.460;2022-09-09T02:21:51;13.90;99.90
12870;DHT22;6503;48.572;13.460;2022-09-09T02:24:22;13.90;99.90
12870;DHT22;6503;48.572;13.460;2022-09-09T02:26:54;14.00;99.90
12870;DHT22;6503;48.572;13.460;2022-09-09T02:29:33;14.00;99.90
12870;DHT22;6503;48.572;13.460;2022-09-09T02:32:06;14.00;99.90
12870;DHT22;6503;48.572;13.460;2022-09-09T02:34:39;14.00;99.90
12870;DHT22;6503;48.572;13.460;2022-09-09T02:37:11;14.00;99.90
12870;DHT22;6503;48.572;13.460;2022-09-09T02:39:42;14.00;99.90
12870;DHT22;6503;48.572;13.460;2022-09-09T02:42:12;14.00;99.90
12870;DHT22;6503;48.572;13.460;2022-09-09T02:44:45;14.00;99.90
12870;DHT22;6503;48.572;13.460;2022-09-09T02:47:24;13.90;99.90
12870;DHT22;6503;48.572;13.460;2022-09-09T02:50:05;14.00;99.90
12870;DHT22;6503;48.572;13.460;2022-09-09T02:52:52;14.00;99.90
12870;DHT22;6503;48.572;13.460;2022-09-09T02:55:34;14.00;99.90
12870;DHT22;6503;48.572;13.460;2022-09-09T02:58:08;13.90;99.90
12870;DHT22;6503;48.572;13.460;2022-09-09T03:00:41;14.00;99.90
12870;DHT22;6503;48.572;13.460;2022-09-09T03:03:11;14.00;99.90
12870;DHT22;6503;48.572;13.460;2022-09-09T03:05:40;14.00;99.90
12870;DHT22;6503;48.572;13.460;2022-09-09T03:08:12;14.00;99.90
12870;DHT22;6503;48.572;13.460;2022-09-09T03:10:43;14.00;99.90
12870;DHT22;6503;48.572;13.460;2022-09-09T03:13:12;14.00;99.90
12870;DHT22;6503;48.572;13.460;2022-09-09T03:15:45;14.10;99.90
12870;DHT22;6503;48.572;13.460;2022-09-09T03:18:15;14.00;99.90
12870;DHT22;6503;48.572;13.460;2022-09-09T03:20:46;14.00;99.90
12870;DHT22;6503;48.572;13.460;2022-09-09T03:23:16;13.90;99.90
12870;DHT22;6503;48.572;13.460;2022-09-09T03:25:49;13.90;99.90
12870;DHT22;6503;48.572;13.460;2022-09-09T03:28:19;14.00;99.90
12870;DHT22;6503;48.572;13.460;2022-09-09T03:30:52;14.00;99.90
12870;DHT22;6503;48.572;13.460;2022-09-09T03:33:27;14.00;99.90
12870;DHT22;6503;48.572;13.460;2022-09-09T03:35:57;14.00;99.90
12870;DHT22;6503;48.572;13.460;2022-09-09T03:38:27;14.00;99.90
12870;DHT22;6503;48.572;13.460;2022-09-09T03:40:57;14.00;99.90
12870;DHT22;6503;48.572;13.460;2022-09-09T03:43:29;14.00;99.90
12870;DHT22;6503;48.572;13.460;2022-09-09T03:46:01;14.00;99.90
12870;DHT22;6503;48.572;13.460;2022-09-09T03:48:31;14.10;99.90
12870;DHT22;6503;48.572;13.460;2022-09-09T03:51:01;14.10;99.90
12870;DHT22;6503;48.572;13.460;2022-09-09T03:53:30;14.00;99.90
12870;DHT22;6503;48.572;13.460;2022-09-09T03:56:00;14.00;99.90
12870;DHT22;6503;48.572;13.460;2022-09-09T03:58:30;14.00;99.90
12870;DHT22;6503;48.572;13.460;2022-09-09T04:01:03;14.00;99.90
12870;DHT22;6503;48.572;13.460;2022-09-09T04:03:33;14.00;99.90
12870;DHT22;6503;48.572;13.460;2022-09-09T04:06:04;14.00;99.90
12870;DHT22;6503;48.572;13.460;2022-09-09T04:08:34;14.00;99.90
12870;DHT22;6503;48.572;13.460;2022-09-09T04:11:04;14.00;99.90
12870;DHT22;6503;48.572;13.460;2022-09-09T04:13:35;14.00;99.90
12870;DHT22;6503;48.572;13.460;2022-09-09T04:16:09;14.00;99.90
12870;DHT22;6503;48.572;13.460;2022-09-09T04:18:40;14.00;99.90
12870;DHT22;6503;48.572;13.460;2022-09-09T04:21:11;14.00;99.90
12870;DHT22;6503;48.572;13.460;2022-09-09T04:23:42;14.00;99.90
12870;DHT22;6503;48.572;13.460;2022-09-09T04:26:12;14.00;99.90
12870;DHT22;6503;48.572;13.460;2022-09-09T04:28:42;14.00;99.90
12870;DHT22;6503;48.572;13.460;2022-09-09T04:31:18;13.90;99.90
12870;DHT22;6503;48.572;13.460;2022-09-09T04:33:49;14.00;99.90
12870;DHT22;6503;48.572;13.460;2022-09-09T04:36:19;14.00;99.90
12870;DHT22;6503;48.572;13.460;2022-09-09T04:38:50;14.00;99.90
12870;DHT22;6503;48.572;13.460;2022-09-09T04:41:21;13.90;99.90
12870;DHT22;6503;48.572;13.460;2022-09-09T04:43:50;13.80;99.90
12870;DHT22;6503;48.572;13.460;2022-09-09T04:46:22;13.80;99.90
12870;DHT22;6503;48.572;13.460;2022-09-09T04:48:52;13.90;99.90
12870;DHT22;6503;48.572;13.460;2022-09-09T04:51:22;13.90;99.90
12870;DHT22;6503;48.572;13.460;2022-09-09T04:53:52;14.00;99.90
12870;DHT22;6503;48.572;13.460;2022-09-09T04:56:22;14.00;99.90
12870;DHT22;6503;48.572;13.460;2022-09-09T04:58:54;14.00;99.90
12870;DHT22;6503;48.572;13.460;2022-09-09T05:01:25;13.90;99.90
12870;DHT22;6503;48.572;13.460;2022-09-09T05:03:55;13.90;99.90
12870;DHT22;6503;48.572;13.460;2022-09-09T05:06:25;13.90;99.90
12870;DHT22;6503;48.572;13.460;2022-09-09T05:08:54;13.90;99.90
12870;DHT22;6503;48.572;13.460;2022-09-09T05:11:26;13.90;99.90
12870;DHT22;6503;48.572;13.460;2022-09-09T05:13:56;13.90;99.90
12870;DHT22;6503;48.572;13.460;2022-09-09T05:16:33;13.90;99.90
12870;DHT22;6503;48.572;13.460;2022-09-09T05:19:03;13.90;99.90
12870;DHT22;6503;48.572;13.460;2022-09-09T05:21:35;13.90;99.90
12870;DHT22;6503;48.572;13.460;2022-09-09T05:24:05;14.00;99.90
12870;DHT22;6503;48.572;13.460;2022-09-09T05:26:35;14.00;99.90
12870;DHT22;6503;48.572;13.460;2022-09-09T05:29:05;14.00;99.90
12870;DHT22;6503;48.572;13.460;2022-09-09T05:31:37;14.10;99.90
12870;DHT22;6503;48.572;13.460;2022-09-09T05:34:06;14.10;99.90
12870;DHT22;6503;48.572;13.460;2022-09-09T05:36:36;14.00;99.90
12870;DHT22;6503;48.572;13.460;2022-09-09T05:39:06;14.10;99.90
12870;DHT22;6503;48.572;13.460;2022-09-09T05:41:36;14.10;99.90
12870;DHT22;6503;48.572;13.460;2022-09-09T05:44:06;14.10;99.90
12870;DHT22;6503;48.572;13.460;2022-09-09T05:46:38;14.10;99.90
12870;DHT22;6503;48.572;13.460;2022-09-09T05:49:08;14.20;99.90
12870;DHT22;6503;48.572;13.460;2022-09-09T05:51:37;14.20;99.90
12870;DHT22;6503;48.572;13.460;2022-09-09T05:54:07;14.20;99.90
12870;DHT22;6503;48.572;13.460;2022-09-09T05:56:37;14.20;99.90
12870;DHT22;6503;48.572;13.460;2022-09-09T05:59:06;14.20;99.90
12870;DHT22;6503;48.572;13.460;2022-09-09T06:01:40;14.30;99.90
12870;DHT22;6503;48.572;13.460;2022-09-09T06:04:09;14.30;99.90
12870;DHT22;6503;48.572;13.460;2022-09-09T06:06:39;14.40;99.90
12870;DHT22;6503;48.572;13.460;2022-09-09T06:09:10;14.40;99.90
12870;DHT22;6503;48.572;13.460;2022-09-09T06:11:41;14.50;99.90
12870;DHT22;6503;48.572;13.460;2022-09-09T06:14:12;14.50;99.90
12870;DHT22;6503;48.572;13.460;2022-09-09T06:16:44;14.50;99.90
12870;DHT22;6503;48.572;13.460;2022-09-09T06:19:13;14.60;99.90
12870;DHT22;6503;48.572;13.460;2022-09-09T06:21:43;14.70;99.90
12870;DHT22;6503;48.572;13.460;2022-09-09T06:24:14;14.80;99.90
12870;DHT22;6503;48.572;13.460;2022-09-09T06:26:46;14.80;99.90
12870;DHT22;6503;48.572;13.460;2022-09-09T06:29:17;14.90;99.90
12870;DHT22;6503;48.572;13.460;2022-09-09T06:31:48;14.90;99.90
12870;DHT22;6503;48.572;13.460;2022-09-09T06:34:18;14.90;99.90
12870;DHT22;6503;48.572;13.460;2022-09-09T06:36:48;14.90;99.90
12870;DHT22;6503;48.572;13.460;2022-09-09T06:39:19;14.90;99.90
12870;DHT22;6503;48.572;13.460;2022-09-09T06:41:48;14.80;99.90
12870;DHT22;6503;48.572;13.460;2022-09-09T06:44:20;14.70;99.90
12870;DHT22;6503;48.572;13.460;2022-09-09T06:46:52;14.80;99.90
12870;DHT22;6503;48.572;13.460;2022-09-09T06:49:22;14.90;99.90
12870;DHT22;6503;48.572;13.460;2022-09-09T06:51:51;14.90;99.90
12870;DHT22;6503;48.572;13.460;2022-09-09T06:54:21;15.00;99.90
12870;DHT22;6503;48.572;13.460;2022-09-09T06:56:51;15.00;99.90
12870;DHT22;6503;48.572;13.460;2022-09-09T06:59:20;15.10;99.90
12870;DHT22;6503;48.572;13.460;2022-09-09T07:01:52;15.20;99.90
12870;DHT22;6503;48.572;13.460;2022-09-09T07:04:22;15.30;99.90
12870;DHT22;6503;48.572;13.460;2022-09-09T07:06:52;15.40;99.90
12870;DHT22;6503;48.572;13.460;2022-09-09T07:09:23;15.50;99.90
12870;DHT22;6503;48.572;13.460;2022-09-09T07:11:54;15.50;99.90
12870;DHT22;6503;48.572;13.460;2022-09-09T07:14:25;15.50;99.90
12870;DHT22;6503;48.572;13.460;2022-09-09T07:16:56;15.50;99.90
12870;DHT22;6503;48.572;13.460;2022-09-09T07:19:28;15.40;99.90
12870;DHT22;6503;48.572;13.460;2022-09-09T07:21:58;15.50;99.90
12870;DHT22;6503;48.572;13.460;2022-09-09T07:24:29;15.50;99.90
12870;DHT22;6503;48.572;13.460;2022-09-09T07:26:59;15.50;99.90
12870;DHT22;6503;48.572;13.460;2022-09-09T07:29:30;15.50;99.90
12870;DHT22;6503;48.572;13.460;2022-09-09T07:32:02;15.50;99.90
12870;DHT22;6503;48.572;13.460;2022-09-09T07:34:33;15.60;99.90
12870;DHT22;6503;48.572;13.460;2022-09-09T07:37:03;15.60;99.90
12870;DHT22;6503;48.572;13.460;2022-09-09T07:39:34;15.70;99.90
12870;DHT22;6503;48.572;13.460;2022-09-09T07:42:04;15.80;99.90
12870;DHT22;6503;48.572;13.460;2022-09-09T07:44:37;15.80;99.90
12870;DHT22;6503;48.572;13.460;2022-09-09T07:47:09;15.80;99.90
12870;DHT22;6503;48.572;13.460;2022-09-09T07:49:38;15.80;99.90
12870;DHT22;6503;48.572;13.460;2022-09-09T07:52:08;15.80;99.90
12870;DHT22;6503;48.572;13.460;2022-09-09T07:54:39;15.80;99.90
12870;DHT22;6503;48.572;13.460;2022-09-09T07:57:09;16.00;99.90
12870;DHT22;6503;48.572;13.460;2022-09-09T07:59:39;16.10;99.90
12870;DHT22;6503;48.572;13.460;2022-09-09T08:04:24;16.20;99.90
12870;DHT22;6503;48.572;13.460;2022-09-09T08:06:56;16.20;99.90
12870;DHT22;6503;48.572;13.460;2022-09-09T08:09:26;16.30;99.90
12870;DHT22;6503;48.572;13.460;2022-09-09T08:11:57;16.30;99.90
12870;DHT22;6503;48.572;13.460;2022-09-09T08:14:28;16.30;99.90
12870;DHT22;6503;48.572;13.460;2022-09-09T08:17:01;16.30;99.90
12870;DHT22;6503;48.572;13.460;2022-09-09T08:19:35;16.40;99.90
12870;DHT22;6503;48.572;13.460;2022-09-09T08:22:04;16.40;99.90
12870;DHT22;6503;48.572;13.460;2022-09-09T08:24:35;16.40;99.90
12870;DHT22;6503;48.572;13.460;2022-09-09T08:27:05;16.50;99.90
12870;DHT22;6503;48.572;13.460;2022-09-09T08:29:37;16.60;99.90
12870;DHT22;6503;48.572;13.460;2022-09-09T08:32:07;16.70;99.90
12870;DHT22;6503;48.572;13.460;2022-09-09T08:34:43;16.80;99.90
12870;DHT22;6503;48.572;13.460;2022-09-09T08:37:12;16.90;99.90
12870;DHT22;6503;48.572;13.460;2022-09-09T08:39:45;16.90;99.90
12870;DHT22;6503;48.572;13.460;2022-09-09T08:42:36;17.00;99.90
12870;DHT22;6503;48.572;13.460;2022-09-09T08:45:31;17.10;99.90
12870;DHT22;6503;48.572;13.460;2022-09-09T08:48:19;17.10;99.90
12870;DHT22;6503;48.572;13.460;2022-09-09T08:50:55;17.20;99.90
12870;DHT22;6503;48.572;13.460;2022-09-09T08:53:34;17.30;99.90
12870;DHT22;6503;48.572;13.460;2022-09-09T08:56:12;17.30;99.90
12870;DHT22;6503;48.572;13.460;2022-09-09T08:58:46;17.30;99.90
12870;DHT22;6503;48.572;13.460;2022-09-09T09:01:35;17.40;99.90
12870;DHT22;6503;48.572;13.460;2022-09-09T09:04:25;17.40;99.90
12870;DHT22;6503;48.572;13.460;2022-09-09T09:07:18;17.40;99.90
12870;DHT22;6503;48.572;13.460;2022-09-09T09:09:58;17.50;99.90
12870;DHT22;6503;48.572;13.460;2022-09-09T09:12:38;17.60;99.90
12870;DHT22;6503;48.572;13.460;2022-09-09T09:15:17;17.70;99.90
12870;DHT22;6503;48.572;13.460;2022-09-09T09:17:48;17.80;99.90
12870;DHT22;6503;48.572;13.460;2022-09-09T09:20:23;17.80;99.90
12870;DHT22;6503;48.572;13.460;2022-09-09T09:23:02;17.90;99.90
12870;DHT22;6503;48.572;13.460;2022-09-09T09:25:36;17.90;99.90
12870;DHT22;6503;48.572;13.460;2022-09-09T09:28:15;17.90;99.90
12870;DHT22;6503;48.572;13.460;2022-09-09T09:30:53;17.90;99.90
12870;DHT22;6503;48.572;13.460;2022-09-09T09:33:27;17.90;99.90
12870;DHT22;6503;48.572;13.460;2022-09-09T09:36:01;17.80;99.90
12870;DHT22;6503;48.572;13.460;2022-09-09T09:38:37;17.80;99.90
12870;DHT22;6503;48.572;13.460;2022-09-09T09:41:07;17.90;99.90
12870;DHT22;6503;48.572;13.460;2022-09-09T09:43:41;17.80;99.90
12870;DHT22;6503;48.572;13.460;2022-09-09T09:46:21;17.90;99.90
12870;DHT22;6503;48.572;13.460;2022-09-09T09:49:01;17.90;99.90
12870;DHT22;6503;48.572;13.460;2022-09-09T09:51:32;18.00;99.90
12870;DHT22;6503;48.572;13.460;2022-09-09T09:54:17;18.00;99.90
12870;DHT22;6503;48.572;13.460;2022-09-09T09:56:48;18.10;99.90
12870;DHT22;6503;48.572;13.460;2022-09-09T09:59:24;18.20;99.90
12870;DHT22;6503;48.572;13.460;2022-09-09T10:02:17;18.20;99.90
12870;DHT22;6503;48.572;13.460;2022-09-09T10:04:48;18.20;99.90
12870;DHT22;6503;48.572;13.460;2022-09-09T10:07:31;18.40;99.90
12870;DHT22;6503;48.572;13.460;2022-09-09T10:10:12;18.40;99.90
12870;DHT22;6503;48.572;13.460;2022-09-09T10:12:53;18.30;99.90
12870;DHT22;6503;48.572;13.460;2022-09-09T10:15:39;18.30;99.90
12870;DHT22;6503;48.572;13.460;2022-09-09T10:18:45;18.40;99.90
12870;DHT22;6503;48.572;13.460;2022-09-09T10:21:40;18.30;99.90
12870;DHT22;6503;48.572;13.460;2022-09-09T10:27:27;18.30;99.90
12870;DHT22;6503;48.572;13.460;2022-09-09T10:30:13;18.20;99.90
12870;DHT22;6503;48.572;13.460;2022-09-09T10:32:51;18.10;99.90
12870;DHT22;6503;48.572;13.460;2022-09-09T10:35:35;18.00;99.90
12870;DHT22;6503;48.572;13.460;2022-09-09T10:38:24;18.00;99.90
12870;DHT22;6503;48.572;13.460;2022-09-09T10:41:16;17.90;99.90
12870;DHT22;6503;48.572;13.460;2022-09-09T10:44:26;17.80;99.90
12870;DHT22;6503;48.572;13.460;2022-09-09T10:50:23;17.60;99.90
12870;DHT22;6503;48.572;13.460;2022-09-09T10:53:08;17.50;99.90
12870;DHT22;6503;48.572;13.460;2022-09-09T10:55:43;17.50;99.90
12870;DHT22;6503;48.572;13.460;2022-09-09T10:58:20;17.50;99.90
12870;DHT22;6503;48.572;13.460;2022-09-09T11:01:00;17.40;99.90
12870;DHT22;6503;48.572;13.460;2022-09-09T11:03:39;17.30;99.90
12870;DHT22;6503;48.572;13.460;2022-09-09T11:06:13;17.30;99.90
12870;DHT22;6503;48.572;13.460;2022-09-09T11:08:45;17.20;99.90
12870;DHT22;6503;48.572;13.460;2022-09-09T11:11:20;17.20;99.90
12870;DHT22;6503;48.572;13.460;2022-09-09T11:13:57;17.10;99.90
12870;DHT22;6503;48.572;13.460;2022-09-09T11:16:36;17.00;99.90
12870;DHT22;6503;48.572;13.460;2022-09-09T11:19:15;16.90;99.90
12870;DHT22;6503;48.572;13.460;2022-09-09T11:21:49;16.90;99.90
12870;DHT22;6503;48.572;13.460;2022-09-09T11:24:22;16.80;99.90
12870;DHT22;6503;48.572;13.460;2022-09-09T11:26:57;16.80;99.90
12870;DHT22;6503;48.572;13.460;2022-09-09T11:35:53;16.60;99.90
12870;DHT22;6503;48.572;13.460;2022-09-09T11:38:29;16.60;99.90
12870;DHT22;6503;48.572;13.460;2022-09-09T11:41:03;16.60;99.90
12870;DHT22;6503;48.572;13.460;2022-09-09T11:43:40;16.50;99.90
12870;DHT22;6503;48.572;13.460;2022-09-09T11:46:13;16.30;99.90
12870;DHT22;6503;48.572;13.460;2022-09-09T11:48:59;16.30;99.90
12870;DHT22;6503;48.572;13.460;2022-09-09T11:51:31;16.30;99.90
12870;DHT22;6503;48.572;13.460;2022-09-09T11:54:29;16.30;99.90
12870;DHT22;6503;48.572;13.460;2022-09-09T11:56:55;16.30;99.90
12870;DHT22;6503;48.572;13.460;2022-09-09T11:59:28;16.30;99.90
12870;DHT22;6503;48.572;13.460;2022-09-09T12:01:59;16.30;99.90
12870;DHT22;6503;48.572;13.460;2022-09-09T12:04:36;16.10;99.90
12870;DHT22;6503;48.572;13.460;2022-09-09T12:07:27;15.90;99.90
12870;DHT22;6503;48.572;13.460;2022-09-09T12:10:02;15.90;99.90
12870;DHT22;6503;48.572;13.460;2022-09-09T12:12:36;16.00;99.90
12870;DHT22;6503;48.572;13.460;2022-09-09T12:15:26;16.00;99.90
12870;DHT22;6503;48.572;13.460;2022-09-09T12:17:57;16.00;99.90
12870;DHT22;6503;48.572;13.460;2022-09-09T12:20:36;16.10;99.90
12870;DHT22;6503;48.572;13.460;2022-09-09T12:23:29;16.00;99.90
12870;DHT22;6503;48.572;13.460;2022-09-09T12:26:23;16.00;99.90
12870;DHT22;6503;48.572;13.460;2022-09-09T12:29:04;16.00;99.90
12870;DHT22;6503;48.572;13.460;2022-09-09T12:31:44;16.20;99.90
12870;DHT22;6503;48.572;13.460;2022-09-09T12:34:27;16.20;99.90
12870;DHT22;6503;48.572;13.460;2022-09-09T12:37:05;16.30;99.90
12870;DHT22;6503;48.572;13.460;2022-09-09T12:39:40;16.30;99.90
12870;DHT22;6503;48.572;13.460;2022-09-09T12:42:24;16.20;99.90
12870;DHT22;6503;48.572;13.460;2022-09-09T12:44:56;16.30;99.90
12870;DHT22;6503;48.572;13.460;2022-09-09T12:47:32;16.30;99.90
12870;DHT22;6503;48.572;13.460;2022-09-09T12:50:14;16.40;99.90
12870;DHT22;6503;48.572;13.460;2022-09-09T12:53:00;16.40;99.90
12870;DHT22;6503;48.572;13.460;2022-09-09T12:55:36;16.30;99.90
12870;DHT22;6503;48.572;13.460;2022-09-09T12:58:07;16.30;99.90
12870;DHT22;6503;48.572;13.460;2022-09-09T13:00:37;16.30;99.90
12870;DHT22;6503;48.572;13.460;2022-09-09T13:03:19;16.30;99.90
12870;DHT22;6503;48.572;13.460;2022-09-09T13:05:52;16.30;99.90
12870;DHT22;6503;48.572;13.460;2022-09-09T13:08:24;16.40;99.90
12870;DHT22;6503;48.572;13.460;2022-09-09T13:10:58;16.30;99.90
12870;DHT22;6503;48.572;13.460;2022-09-09T13:13:35;16.20;99.90
12870;DHT22;6503;48.572;13.460;2022-09-09T13:16:15;16.30;99.90
12870;DHT22;6503;48.572;13.460;2022-09-09T13:18:48;16.40;99.90
12870;DHT22;6503;48.572;13.460;2022-09-09T13:21:29;16.40;99.90
12870;DHT22;6503;48.572;13.460;2022-09-09T13:24:05;16.40;99.90
12870;DHT22;6503;48.572;13.460;2022-09-09T13:26:37;16.40;99.90
12870;DHT22;6503;48.572;13.460;2022-09-09T13:29:18;16.30;99.90
12870;DHT22;6503;48.572;13.460;2022-09-09T13:31:49;16.20;99.90
12870;DHT22;6503;48.572;13.460;2022-09-09T13:34:28;16.20;99.90
12870;DHT22;6503;48.572;13.460;2022-09-09T13:37:01;16.40;99.90
12870;DHT22;6503;48.572;13.460;2022-09-09T13:39:36;16.50;99.90
12870;DHT22;6503;48.572;13.460;2022-09-09T13:42:19;16.60;99.90
12870;DHT22;6503;48.572;13.460;2022-09-09T13:44:52;16.70;99.90
12870;DHT22;6503;48.572;13.460;2022-09-09T13:47:31;16.90;99.90
12870;DHT22;6503;48.572;13.460;2022-09-09T13:50:19;17.00;99.90
12870;DHT22;6503;48.572;13.460;2022-09-09T13:52:50;17.10;99.90
12870;DHT22;6503;48.572;13.460;2022-09-09T13:55:24;17.10;99.90
12870;DHT22;6503;48.572;13.460;2022-09-09T13:57:55;17.30;99.90
12870;DHT22;6503;48.572;13.460;2022-09-09T14:00:28;17.40;99.90
12870;DHT22;6503;48.572;13.460;2022-09-09T14:02:59;17.30;99.90
12870;DHT22;6503;48.572;13.460;2022-09-09T14:05:41;17.40;99.90
12870;DHT22;6503;48.572;13.460;2022-09-09T14:08:22;17.30;99.90
12870;DHT22;6503;48.572;13.460;2022-09-09T14:10:55;17.30;99.90
12870;DHT22;6503;48.572;13.460;2022-09-09T14:13:28;17.20;99.90
12870;DHT22;6503;48.572;13.460;2022-09-09T14:15:58;17.20;99.90
12870;DHT22;6503;48.572;13.460;2022-09-09T14:18:33;17.20;99.90
12870;DHT22;6503;48.572;13.460;2022-09-09T14:21:03;17.30;99.90
12870;DHT22;6503;48.572;13.460;2022-09-09T14:23:33;17.30;99.90
12870;DHT22;6503;48.572;13.460;2022-09-09T14:26:11;17.40;99.90
12870;DHT22;6503;48.572;13.460;2022-09-09T14:28:41;17.60;99.90
12870;DHT22;6503;48.572;13.460;2022-09-09T14:31:12;17.60;99.90
12870;DHT22;6503;48.572;13.460;2022-09-09T14:33:44;17.70;99.90
12870;DHT22;6503;48.572;13.460;2022-09-09T14:36:14;17.60;99.90
12870;DHT22;6503;48.572;13.460;2022-09-09T14:38:44;17.70;99.90
12870;DHT22;6503;48.572;13.460;2022-09-09T14:41:17;17.80;99.90
12870;DHT22;6503;48.572;13.460;2022-09-09T14:43:47;17.90;99.90
12870;DHT22;6503;48.572;13.460;2022-09-09T14:46:18;17.90;99.90
12870;DHT22;6503;48.572;13.460;2022-09-09T14:48:50;17.90;99.90
12870;DHT22;6503;48.572;13.460;2022-09-09T14:51:21;18.00;99.90
12870;DHT22;6503;48.572;13.460;2022-09-09T14:53:52;18.10;99.90
12870;DHT22;6503;48.572;13.460;2022-09-09T14:56:26;18.20;99.90
12870;DHT22;6503;48.572;13.460;2022-09-09T14:58:58;18.30;99.90
12870;DHT22;6503;48.572;13.460;2022-09-09T15:01:28;18.30;99.90
12870;DHT22;6503;48.572;13.460;2022-09-09T15:04:01;18.40;99.90
12870;DHT22;6503;48.572;13.460;2022-09-09T15:06:37;18.50;99.90
12870;DHT22;6503;48.572;13.460;2022-09-09T15:09:15;18.50;99.90
12870;DHT22;6503;48.572;13.460;2022-09-09T15:11:50;18.60;99.90
12870;DHT22;6503;48.572;13.460;2022-09-09T15:14:20;18.70;99.90
12870;DHT22;6503;48.572;13.460;2022-09-09T15:16:51;18.80;99.90
12870;DHT22;6503;48.572;13.460;2022-09-09T15:19:21;18.80;99.90
12870;DHT22;6503;48.572;13.460;2022-09-09T15:21:52;18.80;99.90
12870;DHT22;6503;48.572;13.460;2022-09-09T15:24:25;18.80;99.90
12870;DHT22;6503;48.572;13.460;2022-09-09T15:26:58;18.90;99.90
12870;DHT22;6503;48.572;13.460;2022-09-09T15:29:28;18.80;99.90
12870;DHT22;6503;48.572;13.460;2022-09-09T15:31:58;18.80;99.90
12870;DHT22;6503;48.572;13.460;2022-09-09T15:34:28;18.80;99.90
12870;DHT22;6503;48.572;13.460;2022-09-09T15:36:58;18.80;99.90
12870;DHT22;6503;48.572;13.460;2022-09-09T15:39:28;18.80;99.90
12870;DHT22;6503;48.572;13.460;2022-09-09T15:42:00;18.70;99.90
12870;DHT22;6503;48.572;13.460;2022-09-09T15:44:40;18.60;99.90
12870;DHT22;6503;48.572;13.460;2022-09-09T15:47:12;18.70;99.90
12870;DHT22;6503;48.572;13.460;2022-09-09T15:49:42;18.70;99.90
12870;DHT22;6503;48.572;13.460;2022-09-09T15:52:13;18.80;99.90
12870;DHT22;6503;48.572;13.460;2022-09-09T15:54:43;18.80;99.90
12870;DHT22;6503;48.572;13.460;2022-09-09T15:57:16;18.80;99.90
12870;DHT22;6503;48.572;13.460;2022-09-09T15:59:47;18.80;99.90
12870;DHT22;6503;48.572;13.460;2022-09-09T16:02:16;18.70;99.90
12870;DHT22;6503;48.572;13.460;2022-09-09T16:04:45;18.70;99.90
12870;DHT22;6503;48.572;13.460;2022-09-09T16:07:16;18.60;99.90
12870;DHT22;6503;48.572;13.460;2022-09-09T16:09:45;18.60;99.90
12870;DHT22;6503;48.572;13.460;2022-09-09T16:12:16;18.60;99.90
12870;DHT22;6503;48.572;13.460;2022-09-09T16:14:46;18.60;99.90
12870;DHT22;6503;48.572;13.460;2022-09-09T16:17:16;18.60;99.90
12870;DHT22;6503;48.572;13.460;2022-09-09T16:19:48;18.60;99.90
12870;DHT22;6503;48.572;13.460;2022-09-09T16:22:18;18.60;99.90
12870;DHT22;6503;48.572;13.460;2022-09-09T16:24:48;18.60;99.90
12870;DHT22;6503;48.572;13.460;2022-09-09T16:27:20;18.50;99.90
12870;DHT22;6503;48.572;13.460;2022-09-09T16:29:50;18.50;99.90